createdAt,value
2022-11-20T00:00:49.494Z,65.39
2022-11-20T00:03:20.670Z,65.57
2022-11-20T00:05:53.092Z,65.77
2022-11-20T00:08:29.075Z,65.77
2022-11-20T00:10:59.929Z,66.00
2022-11-20T00:13:30.899Z,65.96
2022-11-20T00:16:03.511Z,66.16
2022-11-20T00:18:36.642Z,65.90
2022-11-20T00:21:08.933Z,66.12
2022-11-20T00:23:39.573Z,66.38
2022-11-20T00:26:12.147Z,66.27
2022-11-20T00:28:43.670Z,66.25
2022-11-20T00:31:16.297Z,66.35
2022-11-20T00:33:47.451Z,66.58
2022-11-20T00:36:19.801Z,66.51
2022-11-20T00:39:16.623Z,66.45
2022-11-20T00:42:06.468Z,66.31
2022-11-20T00:45:00.229Z,66.46
2022-11-20T00:47:31.119Z,66.46
2022-11-20T00:50:02.036Z,66.31
2022-11-20T00:52:32.660Z,66.36
2022-11-20T00:55:03.269Z,66.51
2022-11-20T00:57:33.901Z,66.29
2022-11-20T01:00:06.632Z,66.20
2022-11-20T01:02:40.327Z,66.17
2022-11-20T01:05:12.855Z,66.17
2022-11-20T01:07:44.378Z,65.98
2022-11-20T01:10:22.148Z,66.08
2022-11-20T01:13:14.967Z,66.23
2022-11-20T01:15:45.703Z,66.20
2022-11-20T01:18:36.080Z,66.09
2022-11-20T01:21:10.911Z,66.07
2022-11-20T01:23:43.677Z,66.08
2022-11-20T01:26:16.677Z,65.96
2022-11-20T01:28:49.207Z,65.99
2022-11-20T01:31:30.231Z,66.09
2022-11-20T01:34:03.175Z,66.02
2022-11-20T01:36:35.576Z,65.79
2022-11-20T01:39:10.884Z,66.07
2022-11-20T01:42:13.670Z,65.96
2022-11-20T01:45:26.559Z,65.94
2022-11-20T01:48:24.337Z,65.98
2022-11-20T01:51:15.988Z,66.08
2022-11-20T01:53:59.730Z,66.11
2022-11-20T01:57:05.291Z,66.09
2022-11-20T02:03:20.084Z,65.44
2022-11-20T02:06:31.735Z,65.19
2022-11-20T02:09:02.401Z,65.06
2022-11-20T02:11:33.566Z,64.94
2022-11-20T02:14:04.532Z,65.12
2022-11-20T02:16:39.070Z,65.37
2022-11-20T02:19:15.963Z,65.28
2022-11-20T02:21:51.191Z,65.61
2022-11-20T02:24:23.792Z,65.45
2022-11-20T02:26:57.853Z,65.70
2022-11-20T02:29:33.128Z,65.65
2022-11-20T02:32:04.631Z,65.64
2022-11-20T02:34:38.969Z,65.73
2022-11-20T02:37:09.828Z,65.56
2022-11-20T02:39:41.605Z,65.57
2022-11-20T02:42:12.215Z,65.71
2022-11-20T02:44:44.459Z,65.79
2022-11-20T02:47:15.169Z,65.72
2022-11-20T02:49:48.986Z,65.70
2022-11-20T02:52:19.912Z,65.82
2022-11-20T02:54:50.499Z,66.04
2022-11-20T02:57:21.250Z,66.00
2022-11-20T02:59:51.947Z,66.27
2022-11-20T03:02:22.671Z,66.41
2022-11-20T03:04:55.155Z,66.68
2022-11-20T03:07:27.037Z,67.00
2022-11-20T03:09:57.959Z,67.12
2022-11-20T03:12:28.577Z,67.45
2022-11-20T03:14:59.207Z,67.44
2022-11-20T03:17:30.427Z,67.67
2022-11-20T03:20:04.341Z,67.84
2022-11-20T03:22:35.017Z,68.04
2022-11-20T03:25:06.899Z,68.18
2022-11-20T03:27:38.171Z,68.26
2022-11-20T03:30:10.953Z,68.31
2022-11-20T03:32:41.644Z,68.28
2022-11-20T03:35:12.613Z,68.42
2022-11-20T03:37:43.455Z,68.63
2022-11-20T03:40:14.928Z,68.67
2022-11-20T03:42:49.189Z,68.83
2022-11-20T03:45:20.889Z,69.15
2022-11-20T03:47:51.738Z,69.23
2022-11-20T03:50:23.855Z,69.44
2022-11-20T03:52:54.732Z,69.40
2022-11-20T03:55:25.475Z,69.72
2022-11-20T03:57:56.739Z,69.82
2022-11-20T04:00:27.390Z,69.97
2022-11-20T04:03:01.423Z,69.67
2022-11-20T04:05:32.379Z,69.54
2022-11-20T04:08:03.141Z,69.62
2022-11-20T04:10:34.786Z,69.27
2022-11-20T04:13:05.441Z,69.27
2022-11-20T04:15:38.449Z,69.57
2022-11-20T04:18:09.375Z,69.70
2022-11-20T04:20:40.175Z,69.36
2022-11-20T04:23:13.007Z,69.19
2022-11-20T04:25:43.609Z,68.82
2022-11-20T04:28:14.240Z,68.71
2022-11-20T04:30:46.607Z,68.55
2022-11-20T04:33:17.279Z,68.50
2022-11-20T04:35:52.442Z,68.73
2022-11-20T04:38:24.000Z,68.89
2022-11-20T04:40:57.511Z,69.28
2022-11-20T04:43:28.686Z,69.25
2022-11-20T04:46:00.547Z,69.16
2022-11-20T04:48:32.573Z,69.26
2022-11-20T04:51:06.837Z,69.22
2022-11-20T04:53:38.067Z,69.48
2022-11-20T04:56:11.983Z,69.60
2022-11-20T04:58:43.167Z,69.45
2022-11-20T05:01:15.879Z,69.14
2022-11-20T05:03:47.183Z,68.82
2022-11-20T05:06:20.762Z,68.51
2022-11-20T05:08:51.523Z,68.32
2022-11-20T05:11:25.545Z,68.35
2022-11-20T05:13:56.164Z,68.12
2022-11-20T05:16:27.559Z,68.05
2022-11-20T05:19:00.471Z,68.22
2022-11-20T05:21:32.343Z,68.41
2022-11-20T05:24:03.014Z,68.77
2022-11-20T05:26:33.666Z,69.01
2022-11-20T05:29:04.286Z,69.26
2022-11-20T05:31:35.097Z,69.40
2022-11-20T05:34:05.690Z,69.40
2022-11-20T05:36:36.474Z,69.43
2022-11-20T05:39:12.280Z,69.68
2022-11-20T05:41:42.916Z,69.53
2022-11-20T05:44:15.355Z,69.79
2022-11-20T05:46:45.949Z,69.79
2022-11-20T05:49:16.993Z,69.80
2022-11-20T05:51:47.569Z,69.65
2022-11-20T05:54:18.460Z,69.63
2022-11-20T05:56:49.315Z,69.64
2022-11-20T05:59:20.360Z,69.81
2022-11-20T06:01:51.591Z,70.16
2022-11-20T06:04:26.371Z,69.95
2022-11-20T06:06:57.532Z,70.26
2022-11-20T06:09:29.225Z,70.52
2022-11-20T06:11:59.931Z,70.68
2022-11-20T06:14:30.745Z,70.85
2022-11-20T06:17:01.379Z,70.86
2022-11-20T06:19:32.050Z,70.69
2022-11-20T06:22:02.792Z,70.68
2022-11-20T06:24:33.359Z,70.64
2022-11-20T06:27:03.985Z,70.58
2022-11-20T06:29:34.669Z,70.48
2022-11-20T06:32:05.528Z,70.72
2022-11-20T06:34:36.225Z,70.35
2022-11-20T06:37:06.865Z,70.47
2022-11-20T06:39:37.489Z,70.53
2022-11-20T06:42:08.495Z,70.74
2022-11-20T06:44:39.385Z,70.68
2022-11-20T06:47:11.400Z,70.65
2022-11-20T06:49:42.217Z,70.61
2022-11-20T06:52:12.858Z,70.70
2022-11-20T06:54:46.115Z,70.56
2022-11-20T06:57:16.787Z,70.45
2022-11-20T06:59:47.395Z,70.79
2022-11-20T07:02:18.023Z,70.81
2022-11-20T07:04:48.624Z,70.71
2022-11-20T07:07:19.287Z,71.01
2022-11-20T07:09:49.997Z,70.93
2022-11-20T07:12:22.630Z,70.61
2022-11-20T07:14:53.250Z,70.69
2022-11-20T07:17:23.889Z,70.76
2022-11-20T07:19:54.513Z,70.44
2022-11-20T07:22:25.375Z,70.61
2022-11-20T07:24:56.055Z,70.74
2022-11-20T07:27:26.739Z,70.90
2022-11-20T07:29:58.086Z,70.46
2022-11-20T07:32:28.945Z,70.34
2022-11-20T07:35:04.952Z,70.18
2022-11-20T07:37:37.820Z,70.30
2022-11-20T07:40:09.592Z,70.18
2022-11-20T07:42:40.726Z,69.73
2022-11-20T07:45:13.991Z,69.89
2022-11-20T07:47:44.813Z,69.68
2022-11-20T07:50:16.048Z,69.41
2022-11-20T07:52:51.937Z,69.45
2022-11-20T07:55:22.583Z,69.30
2022-11-20T07:57:59.492Z,69.24
2022-11-20T08:00:31.599Z,69.23
2022-11-20T08:03:04.497Z,69.15
2022-11-20T08:05:35.635Z,69.15
2022-11-20T08:08:07.890Z,68.90
2022-11-20T08:10:38.617Z,68.55
2022-11-20T08:13:28.280Z,68.62
2022-11-20T08:15:58.905Z,67.96
2022-11-20T08:18:32.163Z,68.08
2022-11-20T08:21:06.023Z,67.98
2022-11-20T08:23:37.404Z,67.98
2022-11-20T08:26:08.275Z,67.78
2022-11-20T08:28:39.363Z,67.41
2022-11-20T08:31:10.752Z,66.74
2022-11-20T08:33:41.600Z,66.41
2022-11-20T08:36:12.576Z,66.11
2022-11-20T08:38:46.974Z,65.29
2022-11-20T08:41:28.666Z,64.54
2022-11-20T08:44:01.421Z,64.59
2022-11-20T08:46:37.336Z,65.00
2022-11-20T08:49:10.228Z,64.49
2022-11-20T08:51:42.791Z,64.90
2022-11-20T08:54:13.391Z,63.83
2022-11-20T08:56:44.393Z,63.27
2022-11-20T08:59:31.328Z,63.00
2022-11-20T09:02:07.643Z,63.34
2022-11-20T09:04:38.242Z,63.32
2022-11-20T09:07:08.923Z,61.84
2022-11-20T09:09:39.991Z,57.42
2022-11-20T09:12:10.629Z,52.93
2022-11-20T09:14:41.284Z,48.53
2022-11-20T09:17:14.459Z,46.20
2022-11-20T09:19:45.326Z,43.74
2022-11-20T09:22:16.957Z,41.45
2022-11-20T09:24:49.010Z,40.52
2022-11-20T09:27:39.558Z,43.40
2022-11-20T09:30:25.271Z,45.99
2022-11-20T09:33:10.409Z,48.44
2022-11-20T09:35:41.053Z,50.15
2022-11-20T09:38:12.423Z,51.90
2022-11-20T09:40:50.233Z,53.03
2022-11-20T09:43:26.498Z,54.28
2022-11-20T09:46:08.334Z,55.16
2022-11-20T09:49:04.686Z,56.04
2022-11-20T09:51:48.321Z,57.05
2022-11-20T09:54:22.170Z,58.21
2022-11-20T09:56:58.601Z,58.68
2022-11-20T09:59:40.651Z,59.40
2022-11-20T10:02:21.976Z,59.38
2022-11-20T10:04:58.798Z,60.19
2022-11-20T10:07:39.898Z,60.59
2022-11-20T10:10:21.458Z,60.82
2022-11-20T10:13:06.563Z,60.63
2022-11-20T10:15:49.067Z,61.01
2022-11-20T10:18:31.253Z,61.62
2022-11-20T10:21:11.454Z,61.87
2022-11-20T10:24:03.113Z,62.56
2022-11-20T10:26:45.123Z,61.95
2022-11-20T10:29:17.869Z,60.96
2022-11-20T10:31:53.335Z,60.65
2022-11-20T10:34:28.877Z,61.10
2022-11-20T10:37:05.168Z,61.16
2022-11-20T10:39:43.162Z,61.40
2022-11-20T10:42:17.413Z,61.57
2022-11-20T10:45:06.307Z,61.72
2022-11-20T10:47:39.584Z,62.27
2022-11-20T10:50:25.384Z,61.95
2022-11-20T10:53:18.298Z,62.07
2022-11-20T10:55:53.075Z,62.31
2022-11-20T10:58:35.337Z,61.87
2022-11-20T11:01:15.585Z,61.74
2022-11-20T11:03:46.993Z,61.71
2022-11-20T11:06:24.245Z,61.93
2022-11-20T11:09:00.140Z,61.73
2022-11-20T11:11:34.048Z,61.86
2022-11-20T11:14:10.686Z,62.04
2022-11-20T11:16:53.750Z,61.66
2022-11-20T11:19:28.664Z,61.68
2022-11-20T11:21:59.988Z,61.96
2022-11-20T11:24:42.253Z,61.75
2022-11-20T11:27:18.954Z,61.35
2022-11-20T11:29:50.231Z,61.13
2022-11-20T11:32:23.204Z,61.02
2022-11-20T11:35:05.491Z,61.21
2022-11-20T11:37:39.906Z,61.12
2022-11-20T11:40:23.874Z,61.41
2022-11-20T11:42:59.959Z,61.00
2022-11-20T11:45:30.761Z,60.70
2022-11-20T11:48:05.722Z,60.75
2022-11-20T11:50:37.138Z,60.62
2022-11-20T11:53:15.192Z,60.31
2022-11-20T11:55:48.391Z,60.87
2022-11-20T11:58:31.077Z,60.59
2022-11-20T12:01:10.087Z,60.66
2022-11-20T12:03:42.873Z,60.43
2022-11-20T12:06:16.109Z,60.88
2022-11-20T12:08:51.298Z,60.77
2022-11-20T12:11:26.373Z,60.50
2022-11-20T12:14:02.919Z,59.73
2022-11-20T12:16:36.895Z,59.89
2022-11-20T12:19:13.190Z,60.43
2022-11-20T12:21:59.823Z,60.29
2022-11-20T12:24:46.981Z,60.31
2022-11-20T12:27:51.163Z,60.45
2022-11-20T12:30:25.171Z,59.81
2022-11-20T12:33:22.113Z,60.15
2022-11-20T12:36:15.406Z,60.31
2022-11-20T12:39:05.466Z,60.28
2022-11-20T12:42:11.541Z,60.02
2022-11-20T12:45:24.199Z,60.24
2022-11-20T12:48:28.884Z,59.77
2022-11-20T12:51:16.652Z,59.77
2022-11-20T12:54:05.695Z,59.80
2022-11-20T12:56:45.297Z,60.12
2022-11-20T12:59:36.118Z,60.22
2022-11-20T13:02:20.861Z,59.82
2022-11-20T13:05:10.893Z,60.08
2022-11-20T13:07:43.044Z,59.74
2022-11-20T13:10:23.017Z,59.83
2022-11-20T13:13:01.005Z,60.01
2022-11-20T13:15:46.537Z,60.30
2022-11-20T13:18:17.686Z,60.05
2022-11-20T13:20:50.692Z,60.11
2022-11-20T13:23:31.294Z,60.58
2022-11-20T13:26:17.139Z,60.37
2022-11-20T13:28:49.767Z,60.76
2022-11-20T13:31:39.676Z,60.42
2022-11-20T13:34:14.100Z,60.72
2022-11-20T13:36:54.660Z,60.66
2022-11-20T13:39:32.925Z,60.71
2022-11-20T13:42:05.816Z,61.00
2022-11-20T13:44:44.188Z,61.03
2022-11-20T13:47:25.319Z,60.90
2022-11-20T13:49:59.707Z,61.18
2022-11-20T13:52:43.839Z,60.97
2022-11-20T13:55:24.639Z,61.23
2022-11-20T13:58:09.369Z,61.24
2022-11-20T14:00:50.543Z,61.55
2022-11-20T14:03:44.131Z,61.61
2022-11-20T14:06:24.876Z,61.95
2022-11-20T14:08:55.859Z,61.84
2022-11-20T14:11:30.253Z,61.76
2022-11-20T14:14:06.755Z,62.20
2022-11-20T14:16:38.470Z,61.96
2022-11-20T14:19:32.422Z,62.45
2022-11-20T14:22:19.284Z,62.37
2022-11-20T14:24:50.602Z,62.31
2022-11-20T14:27:23.087Z,62.33
2022-11-20T14:29:54.582Z,62.50
2022-11-20T14:32:31.530Z,62.71
2022-11-20T14:35:10.867Z,62.75
2022-11-20T14:37:42.840Z,62.99
2022-11-20T14:40:29.136Z,63.07
2022-11-20T14:43:00.738Z,63.38
2022-11-20T14:45:31.699Z,63.16
2022-11-20T14:48:03.335Z,63.29
2022-11-20T14:50:34.240Z,63.20
2022-11-20T14:53:04.907Z,63.28
2022-11-20T14:55:38.173Z,63.43
2022-11-20T14:58:22.513Z,63.58
2022-11-20T15:00:59.387Z,63.52
2022-11-20T15:03:37.117Z,63.61
2022-11-20T15:06:09.027Z,64.33
2022-11-20T15:08:39.925Z,64.85
2022-11-20T15:11:22.662Z,65.89
2022-11-20T15:13:53.315Z,66.73
2022-11-20T15:16:26.033Z,67.57
2022-11-20T15:18:57.154Z,67.51
2022-11-20T15:21:28.031Z,68.38
2022-11-20T15:23:59.312Z,68.51
2022-11-20T15:26:32.828Z,68.79
2022-11-20T15:29:03.512Z,68.84
2022-11-20T15:31:36.844Z,68.86
2022-11-20T15:34:11.195Z,68.71
2022-11-20T15:36:41.927Z,69.07
2022-11-20T15:39:13.146Z,68.75
2022-11-20T15:41:43.804Z,69.07
2022-11-20T15:44:15.686Z,69.57
2022-11-20T15:46:47.440Z,69.72
2022-11-20T15:49:19.861Z,69.74
2022-11-20T15:51:53.704Z,70.16
2022-11-20T15:54:28.291Z,69.72
2022-11-20T15:56:59.324Z,69.58
2022-11-20T15:59:29.942Z,70.17
2022-11-20T16:02:03.038Z,70.22
2022-11-20T16:04:37.017Z,70.30
2022-11-20T16:07:07.879Z,70.79
2022-11-20T16:09:39.187Z,71.28
2022-11-20T16:12:34.201Z,71.20
2022-11-20T16:15:22.641Z,71.39
2022-11-20T16:17:53.249Z,71.09
2022-11-20T16:20:25.787Z,71.22
2022-11-20T16:22:56.764Z,71.59
2022-11-20T16:25:28.972Z,71.78
2022-11-20T16:28:01.777Z,71.72
2022-11-20T16:30:32.951Z,71.86
2022-11-20T16:33:03.748Z,71.90
2022-11-20T16:35:34.817Z,72.26
2022-11-20T16:38:05.549Z,71.81
2022-11-20T16:40:36.657Z,72.42
2022-11-20T16:43:12.556Z,72.43
2022-11-20T16:45:45.731Z,72.56
2022-11-20T16:48:17.832Z,72.83
2022-11-20T16:51:04.803Z,72.76
2022-11-20T16:53:36.454Z,72.69
2022-11-20T16:56:16.086Z,72.81
2022-11-20T16:58:48.577Z,73.20
2022-11-20T17:01:21.976Z,73.39
2022-11-20T17:03:59.841Z,73.33
2022-11-20T17:06:33.754Z,73.53
2022-11-20T17:09:04.819Z,73.55
2022-11-20T17:11:35.410Z,73.70
2022-11-20T17:14:07.495Z,73.72
2022-11-20T17:16:39.974Z,73.88
2022-11-20T17:19:12.213Z,73.90
2022-11-20T17:21:43.118Z,73.82
2022-11-20T17:24:17.418Z,73.77
2022-11-20T17:26:49.666Z,73.37
2022-11-20T17:29:24.127Z,73.59
2022-11-20T17:31:56.371Z,73.73
2022-11-20T17:34:27.561Z,73.54
2022-11-20T17:36:58.181Z,73.75
2022-11-20T17:39:30.710Z,73.61
2022-11-20T17:42:19.097Z,73.50
2022-11-20T17:44:50.092Z,73.42
2022-11-20T17:47:20.721Z,73.48
2022-11-20T17:49:59.983Z,73.53
2022-11-20T17:52:30.614Z,73.29
2022-11-20T17:55:01.214Z,73.35
2022-11-20T17:57:49.378Z,73.79
2022-11-20T18:00:21.142Z,73.92
2022-11-20T18:02:51.939Z,73.65
2022-11-20T18:05:22.532Z,74.18
2022-11-20T18:08:03.556Z,74.10
2022-11-20T18:10:35.235Z,74.29
2022-11-20T18:15:52.021Z,74.52
2022-11-20T18:18:22.629Z,74.32
2022-11-20T18:20:57.082Z,74.37
2022-11-20T18:23:27.759Z,74.50
2022-11-20T18:26:03.524Z,74.51
2022-11-20T18:28:37.705Z,74.56
2022-11-20T18:31:12.144Z,74.72
2022-11-20T18:33:43.246Z,74.48
2022-11-20T18:36:15.496Z,73.97
2022-11-20T18:38:47.472Z,74.16
2022-11-20T18:41:33.957Z,74.30
2022-11-20T18:44:26.603Z,74.13
2022-11-20T18:46:57.409Z,74.40
2022-11-20T18:49:30.709Z,74.44
2022-11-20T18:52:07.691Z,74.05
2022-11-20T18:54:39.450Z,73.66
2022-11-20T18:57:14.580Z,73.36
2022-11-20T18:59:45.625Z,73.36
2022-11-20T19:02:18.914Z,73.69
2022-11-20T19:04:49.825Z,73.39
2022-11-20T19:07:21.757Z,73.36
2022-11-20T19:09:53.739Z,73.54
2022-11-20T19:12:24.387Z,73.32
2022-11-20T19:14:55.464Z,73.47
2022-11-20T19:17:27.871Z,73.58
2022-11-20T19:19:58.607Z,73.88
2022-11-20T19:22:31.778Z,74.05
2022-11-20T19:25:02.457Z,74.11
2022-11-20T19:27:33.066Z,74.13
2022-11-20T19:30:04.095Z,74.58
2022-11-20T19:32:35.353Z,74.70
2022-11-20T19:35:06.696Z,74.57
2022-11-20T19:37:37.549Z,74.63
2022-11-20T19:40:11.790Z,74.44
2022-11-20T19:42:43.273Z,74.60
2022-11-20T19:45:13.972Z,74.93
2022-11-20T19:50:35.507Z,74.82
2022-11-20T19:53:09.631Z,74.90
2022-11-20T19:55:40.293Z,75.23
2022-11-20T19:58:10.933Z,75.18
2022-11-20T20:00:41.564Z,75.24
2022-11-20T20:03:12.236Z,74.94
2022-11-20T20:05:42.899Z,75.09
2022-11-20T20:08:16.943Z,75.20
2022-11-20T20:10:47.850Z,75.56
2022-11-20T20:13:19.605Z,75.40
2022-11-20T20:15:50.407Z,75.41
2022-11-20T20:18:21.091Z,75.15
2022-11-20T20:20:51.748Z,75.07
2022-11-20T20:23:22.616Z,75.17
2022-11-20T20:25:53.263Z,75.12
2022-11-20T20:28:25.163Z,75.11
2022-11-20T20:30:56.276Z,75.02
2022-11-20T20:33:27.197Z,75.19
2022-11-20T20:36:00.045Z,75.20
2022-11-20T20:38:31.302Z,75.13
2022-11-20T20:41:04.792Z,75.26
2022-11-20T20:43:57.153Z,75.06
2022-11-20T20:46:27.852Z,75.05
2022-11-20T20:48:58.531Z,74.62
2022-11-20T20:51:29.858Z,74.52
2022-11-20T20:54:00.539Z,74.62
2022-11-20T20:56:31.148Z,74.74
2022-11-20T20:59:01.847Z,74.45
2022-11-20T21:01:32.557Z,74.45
2022-11-20T21:04:03.414Z,74.42
2022-11-20T21:06:34.016Z,74.49
2022-11-20T21:09:09.866Z,74.40
2022-11-20T21:11:40.956Z,74.19
2022-11-20T21:14:11.577Z,74.38
2022-11-20T21:16:43.933Z,74.23
2022-11-20T21:19:14.664Z,74.26
2022-11-20T21:22:00.614Z,73.70
2022-11-20T21:24:32.938Z,73.77
2022-11-20T21:27:05.092Z,73.52
2022-11-20T21:29:36.041Z,73.20
2022-11-20T21:32:06.672Z,73.51
2022-11-20T21:34:37.510Z,73.63
2022-11-20T21:37:08.085Z,73.12
2022-11-20T21:39:50.651Z,73.33
2022-11-20T21:42:22.291Z,73.40
2022-11-20T21:44:52.876Z,73.29
2022-11-20T21:47:23.480Z,73.66
2022-11-20T21:49:54.093Z,73.60
2022-11-20T21:52:26.040Z,73.09
2022-11-20T21:54:56.610Z,73.46
2022-11-20T21:57:27.191Z,73.41
2022-11-20T21:59:57.775Z,73.17
2022-11-20T22:02:28.417Z,73.49
2022-11-20T22:04:59.022Z,72.90
2022-11-20T22:07:29.822Z,73.52
2022-11-20T22:10:01.288Z,73.19
2022-11-20T22:12:31.962Z,73.02
2022-11-20T22:15:02.644Z,73.02
2022-11-20T22:17:50.556Z,72.86
2022-11-20T22:20:21.401Z,73.05
2022-11-20T22:22:51.987Z,72.90
2022-11-20T22:25:22.579Z,72.97
2022-11-20T22:27:53.160Z,72.96
2022-11-20T22:30:23.827Z,73.33
2022-11-20T22:32:56.350Z,73.48
2022-11-20T22:35:27.040Z,73.40
2022-11-20T22:37:57.630Z,72.84
2022-11-20T22:40:29.996Z,72.97
2022-11-20T22:43:00.658Z,72.96
2022-11-20T22:45:31.798Z,72.81
2022-11-20T22:48:02.444Z,73.12
2022-11-20T22:50:33.037Z,72.58
2022-11-20T22:53:03.671Z,72.49
2022-11-20T22:55:35.322Z,72.64
2022-11-20T22:58:05.952Z,72.84
2022-11-20T23:00:36.546Z,72.59
2022-11-20T23:03:07.243Z,72.54
2022-11-20T23:05:37.904Z,72.42
2022-11-20T23:08:08.665Z,72.23
2022-11-20T23:10:40.058Z,71.89
2022-11-20T23:13:11.058Z,71.53
2022-11-20T23:15:42.548Z,72.13
2022-11-20T23:18:16.894Z,72.27
2022-11-20T23:20:47.538Z,72.04
2022-11-20T23:23:18.178Z,72.28
2022-11-20T23:25:48.900Z,72.08
2022-11-20T23:28:19.546Z,71.98
2022-11-20T23:30:50.868Z,72.18
2022-11-20T23:33:21.478Z,72.41
2022-11-20T23:35:52.585Z,72.54
2022-11-20T23:38:26.128Z,72.25
2022-11-20T23:40:56.790Z,72.56
2022-11-20T23:43:27.676Z,72.86
2022-11-20T23:46:00.055Z,73.23
2022-11-20T23:48:32.126Z,73.24
2022-11-20T23:51:03.156Z,73.03
2022-11-20T23:53:34.295Z,73.01
2022-11-20T23:56:07.171Z,72.88
2022-11-20T23:58:39.526Z,73.15
